Time;durP1;ratioP1;P1;durP2;ratioP2;P2;SDS_P1;SDS_P2;PMS_P1;PMS_P2;Temp;Humidity;BMP_temperature;BMP_pressure;BME280_temperature;BME280_humidity;BME280_pressure;Samples;Min_cycle;Max_cycle;Signal;HPM_P1;HPM_P2
2021/08/10 00:01:00;;;;;;;17.33;10.63;;;14.40;99.90;;;;;;6246592;22;20011;-82
2021/08/10 00:03:26;;;;;;;15.13;10.38;;;14.40;99.90;;;;;;6224440;22;20011;-82
2021/08/10 00:05:51;;;;;;;16.15;10.60;;;14.40;99.90;;;;;;6220615;22;20157;-82
2021/08/10 00:08:20;;;;;;;17.10;10.38;;;14.50;99.90;;;;;;6195215;22;20103;-81
2021/08/10 00:10:47;;;;;;;19.05;11.02;;;14.50;99.90;;;;;;6216854;22;20007;-82
2021/08/10 00:13:16;;;;;;;15.15;10.63;;;14.60;99.90;;;;;;6217936;22;20038;-82
2021/08/10 00:15:42;;;;;;;15.02;9.75;;;14.60;99.90;;;;;;6245176;22;20020;-81
2021/08/10 00:18:09;;;;;;;16.70;10.52;;;14.60;99.90;;;;;;6193638;22;20072;-81
2021/08/10 00:20:35;;;;;;;15.15;10.80;;;14.70;99.90;;;;;;6217424;22;20077;-82
2021/08/10 00:23:02;;;;;;;18.42;10.23;;;14.70;99.90;;;;;;6202914;22;20087;-82
2021/08/10 00:25:28;;;;;;;19.42;10.63;;;14.70;99.90;;;;;;6272082;22;20019;-82
2021/08/10 00:27:54;;;;;;;17.75;10.20;;;14.70;99.90;;;;;;6216682;22;20011;-82
2021/08/10 00:30:20;;;;;;;18.08;10.68;;;14.70;99.90;;;;;;6270160;22;20020;-84
2021/08/10 00:32:46;;;;;;;15.90;10.35;;;14.70;99.90;;;;;;6242574;22;20438;-85
2021/08/10 00:35:12;;;;;;;15.02;10.88;;;14.70;99.90;;;;;;6219803;22;20094;-83
2021/08/10 00:37:38;;;;;;;18.85;11.43;;;14.70;99.90;;;;;;6217469;22;20551;-83
2021/08/10 00:40:05;;;;;;;17.98;11.63;;;14.70;99.90;;;;;;6215382;22;20011;-84
2021/08/10 00:42:31;;;;;;;17.73;11.43;;;14.70;99.90;;;;;;6218583;22;20026;-82
2021/08/10 00:44:56;;;;;;;17.08;10.93;;;14.70;99.90;;;;;;6270086;22;20015;-84
2021/08/10 00:47:22;;;;;;;23.88;11.65;;;14.70;99.90;;;;;;6191299;22;20015;-83
2021/08/10 00:49:48;;;;;;;23.55;11.65;;;14.70;99.90;;;;;;6193769;22;20332;-82
2021/08/10 00:52:14;;;;;;;21.83;11.88;;;14.80;99.90;;;;;;6241517;22;20012;-85
2021/08/10 00:54:40;;;;;;;16.13;11.23;;;14.80;99.90;;;;;;6216805;22;20019;-83
2021/08/10 00:57:06;;;;;;;20.15;11.45;;;14.80;99.90;;;;;;6217198;22;20024;-83
2021/08/10 00:59:32;;;;;;;18.25;11.32;;;14.80;99.90;;;;;;6241469;22;20007;-82
2021/08/10 01:01:58;;;;;;;16.27;11.68;;;14.80;99.90;;;;;;6218938;22;20893;-82
2021/08/10 01:04:24;;;;;;;24.20;11.73;;;14.80;99.90;;;;;;6272290;22;20007;-83
2021/08/10 01:07:04;;;;;;;22.10;11.77;;;14.80;99.90;;;;;;6237015;22;20081;-81
2021/08/10 01:10:01;;;;;;;16.17;11.07;;;14.80;99.90;;;;;;6273879;22;19995;-81
2021/08/10 01:12:54;;;;;;;22.92;11.82;;;14.80;99.90;;;;;;6281588;22;20436;-83
2021/08/10 01:15:25;;;;;;;20.75;11.18;;;14.80;99.90;;;;;;6232797;22;20019;-85
2021/08/10 01:18:13;;;;;;;17.70;11.90;;;14.80;99.90;;;;;;6274030;22;20019;-83
2021/08/10 01:20:58;;;;;;;19.17;11.27;;;14.80;99.90;;;;;;6285000;22;20012;-83
2021/08/10 01:23:29;;;;;;;16.88;10.93;;;14.80;99.90;;;;;;6246936;22;20046;-83
2021/08/10 01:26:00;;;;;;;18.80;11.63;;;14.80;99.90;;;;;;6257735;22;20019;-81
2021/08/10 01:28:49;;;;;;;19.70;12.43;;;14.80;99.90;;;;;;6271688;22;20436;-85
2021/08/10 01:31:15;;;;;;;17.65;10.45;;;14.80;99.90;;;;;;6248419;22;20037;-82
2021/08/10 01:33:45;;;;;;;19.30;10.90;;;14.80;99.90;;;;;;6249168;22;20339;-84
2021/08/10 01:36:12;;;;;;;16.95;11.80;;;14.80;99.90;;;;;;6272070;22;20016;-84
2021/08/10 01:38:40;;;;;;;15.27;11.13;;;14.70;99.90;;;;;;6245852;22;20011;-80
2021/08/10 01:41:06;;;;;;;19.27;11.75;;;14.70;99.90;;;;;;6223775;22;20383;-81
2021/08/10 01:43:33;;;;;;;21.77;11.88;;;14.70;99.90;;;;;;6174224;22;20015;-79
2021/08/10 01:45:59;;;;;;;21.60;12.10;;;14.70;99.90;;;;;;6222065;22;20122;-82
2021/08/10 01:48:29;;;;;;;20.17;12.43;;;14.70;99.90;;;;;;6248939;22;20015;-81
2021/08/10 01:50:55;;;;;;;19.55;12.05;;;14.70;99.90;;;;;;6225785;22;20506;-83
2021/08/10 01:53:22;;;;;;;23.10;12.32;;;14.60;99.90;;;;;;6200889;22;20008;-82
2021/08/10 01:55:50;;;;;;;20.80;11.70;;;14.70;99.90;;;;;;6249941;22;20046;-81
2021/08/10 01:58:16;;;;;;;17.85;11.45;;;14.60;99.90;;;;;;6224203;22;20019;-82
2021/08/10 02:00:45;;;;;;;17.63;11.38;;;14.60;99.90;;;;;;6252015;22;20030;-82
2021/08/10 02:03:13;;;;;;;17.88;11.18;;;14.60;99.90;;;;;;6249515;22;20035;-81
2021/08/10 02:05:42;;;;;;;20.00;11.55;;;14.60;99.90;;;;;;6250681;22;20023;-81
2021/08/10 02:08:09;;;;;;;18.92;11.10;;;14.60;99.90;;;;;;6223633;22;20011;-81
2021/08/10 02:10:36;;;;;;;25.48;12.85;;;14.60;99.90;;;;;;6250518;22;20028;-81
2021/08/10 02:13:03;;;;;;;20.45;11.30;;;14.60;99.90;;;;;;6249131;22;20018;-82
2021/08/10 02:15:30;;;;;;;19.10;11.13;;;14.50;99.90;;;;;;6222982;22;20075;-81
2021/08/10 02:17:57;;;;;;;17.70;11.02;;;14.50;99.90;;;;;;6249206;22;20015;-82
2021/08/10 02:20:22;;;;;;;20.75;11.27;;;14.50;99.90;;;;;;6224664;22;20615;-80
2021/08/10 02:22:49;;;;;;;18.55;10.93;;;14.50;99.90;;;;;;6223196;22;20091;-81
2021/08/10 02:25:21;;;;;;;17.20;10.40;;;14.50;99.90;;;;;;6249530;22;20016;-81
2021/08/10 02:27:53;;;;;;;18.92;11.35;;;14.50;99.90;;;;;;6276279;22;20031;-81
2021/08/10 02:30:22;;;;;;;17.70;10.45;;;14.50;99.90;;;;;;6247330;22;20035;-82
2021/08/10 02:32:49;;;;;;;16.27;10.55;;;14.50;99.90;;;;;;6223113;22;20018;-81
2021/08/10 02:35:27;;;;;;;17.55;10.35;;;14.50;99.90;;;;;;6247061;22;20046;-82
2021/08/10 02:37:56;;;;;;;16.92;10.40;;;14.50;99.90;;;;;;6254895;22;20626;-82
2021/08/10 02:40:26;;;;;;;16.05;9.68;;;14.50;99.90;;;;;;6219847;22;20022;-82
2021/08/10 02:42:54;;;;;;;20.85;10.23;;;14.50;99.90;;;;;;6245740;22;20019;-82
2021/08/10 02:45:20;;;;;;;18.30;10.10;;;14.50;99.90;;;;;;6246487;22;20343;-81
2021/08/10 02:47:51;;;;;;;15.20;9.75;;;14.50;99.90;;;;;;6219408;22;20014;-82
2021/08/10 02:50:17;;;;;;;15.18;9.23;;;14.60;99.90;;;;;;6247555;22;20012;-81
2021/08/10 02:52:43;;;;;;;18.80;9.70;;;14.50;99.90;;;;;;6245495;22;20054;-81
2021/08/10 02:55:10;;;;;;;16.15;9.57;;;14.50;99.90;;;;;;6221099;22;20666;-82
2021/08/10 02:57:52;;;;;;;16.83;10.30;;;14.50;99.90;;;;;;6222221;22;20023;-83
2021/08/10 03:00:18;;;;;;;18.63;10.80;;;14.50;99.90;;;;;;6255432;22;20011;-82
2021/08/10 03:02:48;;;;;;;15.93;10.60;;;14.50;99.90;;;;;;6219976;22;20100;-82
2021/08/10 03:05:33;;;;;;;18.55;11.80;;;14.50;99.90;;;;;;6246251;22;20090;-81
2021/08/10 03:08:02;;;;;;;20.10;12.35;;;14.50;99.90;;;;;;6245378;22;20014;-81
2021/08/10 03:10:32;;;;;;;21.83;12.32;;;14.50;99.90;;;;;;6273940;22;20387;-82
2021/08/10 03:13:02;;;;;;;19.67;12.30;;;14.50;99.90;;;;;;6245186;22;20015;-81
2021/08/10 03:15:30;;;;;;;23.17;13.18;;;14.50;99.90;;;;;;6245427;22;20023;-83
2021/08/10 03:18:02;;;;;;;21.70;12.98;;;14.50;99.90;;;;;;6243397;22;20102;-83
2021/08/10 03:20:30;;;;;;;23.17;13.10;;;14.50;99.90;;;;;;6244297;22;20047;-82
2021/08/10 03:22:57;;;;;;;25.90;14.10;;;14.50;99.90;;;;;;6282208;22;20562;-82
2021/08/10 03:25:23;;;;;;;23.73;14.07;;;14.50;99.90;;;;;;6230218;22;19996;-80
2021/08/10 03:27:51;;;;;;;25.13;14.38;;;14.50;99.90;;;;;;6274501;22;20026;-81
2021/08/10 03:30:18;;;;;;;26.60;14.15;;;14.50;99.90;;;;;;6281779;22;20065;-82
2021/08/10 03:32:46;;;;;;;22.77;13.13;;;14.50;99.90;;;;;;6241848;22;20008;-83
2021/08/10 03:35:12;;;;;;;21.30;14.18;;;14.50;99.90;;;;;;6242114;22;20008;-82
2021/08/10 03:37:39;;;;;;;24.15;13.18;;;14.50;99.90;;;;;;6241620;22;20452;-85
2021/08/10 03:40:07;;;;;;;21.52;13.45;;;14.60;99.90;;;;;;6218058;22;20012;-82
2021/08/10 03:42:36;;;;;;;20.85;11.80;;;14.60;99.90;;;;;;6213896;22;20008;-81
2021/08/10 03:45:03;;;;;;;19.17;12.07;;;14.60;99.90;;;;;;6266560;22;20018;-82
2021/08/10 03:47:31;;;;;;;18.05;11.52;;;14.60;99.90;;;;;;6242777;22;20012;-82
2021/08/10 03:49:58;;;;;;;18.30;11.10;;;14.60;99.90;;;;;;6242967;22;20016;-85
2021/08/10 03:52:27;;;;;;;17.95;10.73;;;14.60;99.90;;;;;;6227649;22;20014;-83
2021/08/10 03:54:53;;;;;;;18.17;9.77;;;14.70;99.90;;;;;;6218754;22;20034;-82
2021/08/10 03:57:20;;;;;;;20.00;10.63;;;14.70;99.90;;;;;;6221862;22;20542;-82
2021/08/10 03:59:49;;;;;;;17.05;10.70;;;14.70;99.90;;;;;;6269426;22;20079;-81
2021/08/10 04:02:16;;;;;;;24.60;10.40;;;14.70;99.90;;;;;;6215431;22;20019;-81
2021/08/10 04:04:44;;;;;;;21.80;10.30;;;14.70;99.90;;;;;;6247960;22;20011;-82
2021/08/10 04:07:11;;;;;;;15.23;10.60;;;14.70;99.90;;;;;;6244861;22;20016;-84
2021/08/10 04:09:38;;;;;;;16.38;10.15;;;14.70;99.90;;;;;;6192184;22;20388;-82
2021/08/10 04:12:10;;;;;;;15.70;9.82;;;14.70;99.90;;;;;;6216476;22;20011;-84
2021/08/10 04:14:36;;;;;;;21.58;11.23;;;14.80;99.90;;;;;;6218023;22;20034;-83
2021/08/10 04:17:05;;;;;;;16.02;9.85;;;14.70;99.90;;;;;;6192363;22;20065;-83
2021/08/10 04:19:35;;;;;;;19.15;10.35;;;14.80;99.90;;;;;;6218223;22;20022;-82
2021/08/10 04:22:02;;;;;;;19.42;10.70;;;14.80;99.90;;;;;;6243578;22;20019;-83
2021/08/10 04:24:28;;;;;;;20.02;10.85;;;14.70;99.90;;;;;;6268790;22;20448;-83
2021/08/10 04:26:54;;;;;;;15.48;10.52;;;14.80;99.90;;;;;;6216215;22;20094;-82
2021/08/10 04:29:20;;;;;;;24.95;10.60;;;14.80;99.90;;;;;;6218332;22;20043;-85
2021/08/10 04:31:46;;;;;;;21.20;10.52;;;14.80;99.90;;;;;;6241599;22;20012;-83
2021/08/10 04:34:12;;;;;;;20.35;11.75;;;14.80;99.90;;;;;;6243096;22;20472;-83
2021/08/10 04:36:38;;;;;;;16.95;11.45;;;14.70;99.90;;;;;;6218023;22;20061;-82
2021/08/10 04:39:04;;;;;;;23.80;11.50;;;14.80;99.90;;;;;;6268614;22;20080;-85
2021/08/10 04:41:31;;;;;;;21.00;11.23;;;14.80;99.90;;;;;;6193696;22;20460;-85
2021/08/10 04:43:57;;;;;;;17.63;11.13;;;14.80;99.90;;;;;;6218935;22;20034;-83
2021/08/10 04:46:25;;;;;;;23.15;11.85;;;14.80;99.90;;;;;;6219493;22;20039;-83
2021/08/10 04:48:51;;;;;;;24.23;12.30;;;14.80;99.90;;;;;;6242248;22;20019;-85
2021/08/10 04:51:17;;;;;;;19.90;12.43;;;14.80;99.90;;;;;;6190049;22;20348;-83
2021/08/10 04:53:43;;;;;;;22.63;12.88;;;14.80;99.90;;;;;;6241146;22;20019;-84
2021/08/10 04:56:09;;;;;;;26.52;13.52;;;14.80;99.90;;;;;;6241819;22;20105;-84
2021/08/10 04:58:36;;;;;;;24.25;13.98;;;14.80;99.90;;;;;;6243135;22;20008;-83
2021/08/10 05:01:03;;;;;;;25.35;14.07;;;14.80;99.90;;;;;;6242984;22;20086;-83
2021/08/10 05:03:29;;;;;;;23.98;14.30;;;14.80;99.90;;;;;;6247461;22;20521;-83
2021/08/10 05:05:57;;;;;;;23.45;14.68;;;14.70;99.90;;;;;;6198567;22;20015;-83
2021/08/10 05:08:25;;;;;;;22.55;14.40;;;14.70;99.90;;;;;;6247629;22;20332;-82
2021/08/10 05:10:54;;;;;;;26.65;14.73;;;14.70;99.90;;;;;;6193356;22;20009;-81
2021/08/10 05:13:20;;;;;;;27.55;16.33;;;14.70;99.90;;;;;;6243665;22;20459;-81
2021/08/10 05:15:46;;;;;;;29.25;14.98;;;14.70;99.90;;;;;;6243633;22;20012;-82
2021/08/10 05:18:11;;;;;;;28.65;15.90;;;14.70;99.90;;;;;;6217362;22;20016;-82
2021/08/10 05:20:38;;;;;;;26.80;14.63;;;14.70;99.90;;;;;;6214889;22;20224;-82
2021/08/10 05:23:04;;;;;;;24.27;14.25;;;14.70;99.90;;;;;;6217332;22;20091;-81
2021/08/10 05:25:29;;;;;;;31.88;15.95;;;14.70;99.90;;;;;;6216470;22;20380;-81
2021/08/10 05:27:55;;;;;;;32.13;15.32;;;14.70;99.90;;;;;;6215594;22;20012;-82
2021/08/10 05:30:21;;;;;;;29.65;14.70;;;14.70;99.90;;;;;;6270877;22;20038;-82
2021/08/10 05:32:48;;;;;;;31.63;16.60;;;14.70;99.90;;;;;;6191943;22;20403;-81
2021/08/10 05:35:13;;;;;;;29.65;15.90;;;14.70;99.90;;;;;;6217168;22;20034;-82
2021/08/10 05:37:39;;;;;;;32.13;15.88;;;14.70;99.90;;;;;;6243322;22;20011;-82
2021/08/10 05:40:06;;;;;;;27.50;16.08;;;14.70;99.90;;;;;;6191051;22;20007;-80
2021/08/10 05:42:31;;;;;;;32.95;16.55;;;14.70;99.90;;;;;;6190365;22;20007;-81
2021/08/10 05:44:57;;;;;;;29.08;15.73;;;14.70;99.90;;;;;;6239880;22;20022;-82
2021/08/10 05:47:23;;;;;;;32.08;17.23;;;14.70;99.90;;;;;;6240186;22;20011;-81
2021/08/10 05:49:49;;;;;;;27.00;14.60;;;14.80;99.90;;;;;;6241224;22;20069;-81
2021/08/10 05:52:15;;;;;;;30.10;15.52;;;14.80;99.90;;;;;;6217128;22;20015;-82
2021/08/10 05:54:41;;;;;;;22.33;14.55;;;14.80;99.90;;;;;;6241300;22;20098;-82
2021/08/10 05:57:07;;;;;;;26.85;14.70;;;14.80;99.90;;;;;;6241091;22;20054;-82
2021/08/10 05:59:33;;;;;;;22.92;13.68;;;14.80;99.90;;;;;;6191354;22;20062;-82
2021/08/10 06:01:59;;;;;;;29.40;15.65;;;14.80;99.90;;;;;;6190408;22;20065;-82
2021/08/10 06:04:25;;;;;;;26.70;15.02;;;14.80;99.90;;;;;;6216756;22;20012;-82
2021/08/10 06:06:52;;;;;;;23.77;13.65;;;14.80;99.90;;;;;;6240776;22;20080;-82
2021/08/10 06:09:17;;;;;;;24.73;14.00;;;14.80;99.90;;;;;;6215254;22;20676;-82
2021/08/10 06:11:43;;;;;;;26.88;15.63;;;14.80;99.90;;;;;;6216089;22;20007;-82
2021/08/10 06:14:09;;;;;;;26.40;15.50;;;14.80;99.90;;;;;;6189898;22;20016;-82
2021/08/10 06:16:35;;;;;;;32.75;17.35;;;14.90;99.90;;;;;;6216038;22;20063;-81
2021/08/10 06:19:02;;;;;;;29.60;16.33;;;14.90;99.90;;;;;;6266648;22;20427;-82
2021/08/10 06:21:29;;;;;;;27.95;16.30;;;15.00;99.90;;;;;;6220767;22;20096;-81
2021/08/10 06:23:55;;;;;;;27.60;16.00;;;15.00;99.90;;;;;;6245127;22;20328;-81
2021/08/10 06:26:21;;;;;;;25.65;16.65;;;15.10;99.90;;;;;;6216725;22;20011;-82
2021/08/10 06:28:47;;;;;;;28.33;16.25;;;15.10;99.90;;;;;;6190630;22;20406;-81
2021/08/10 06:31:13;;;;;;;26.65;17.20;;;15.20;99.90;;;;;;6243490;22;20083;-81
2021/08/10 06:33:39;;;;;;;30.25;17.73;;;15.20;99.90;;;;;;6215812;22;20356;-82
2021/08/10 06:36:06;;;;;;;25.52;15.55;;;15.20;99.90;;;;;;6269232;22;20015;-82
2021/08/10 06:38:33;;;;;;;22.92;14.40;;;15.20;99.90;;;;;;6269418;22;20414;-82
2021/08/10 06:40:58;;;;;;;23.88;15.10;;;15.30;99.90;;;;;;6268376;22;20031;-82
2021/08/10 06:43:24;;;;;;;22.27;15.88;;;15.30;99.90;;;;;;6240357;22;20471;-82
2021/08/10 06:45:50;;;;;;;20.52;15.63;;;15.30;99.90;;;;;;6247217;22;20325;-82
2021/08/10 06:48:16;;;;;;;25.27;15.68;;;15.30;99.90;;;;;;6221897;22;20015;-81
2021/08/10 06:50:42;;;;;;;26.13;16.60;;;15.30;99.90;;;;;;6222242;22;20016;-81
2021/08/10 06:53:08;;;;;;;18.92;12.73;;;15.40;99.90;;;;;;6221300;22;20019;-81
2021/08/10 06:55:34;;;;;;;23.13;13.95;;;15.40;99.90;;;;;;6221275;22;20392;-83
2021/08/10 06:58:00;;;;;;;19.33;14.45;;;15.40;99.90;;;;;;6245674;22;20011;-82
2021/08/10 07:00:26;;;;;;;27.10;15.75;;;15.40;99.90;;;;;;6220384;22;20015;-82
2021/08/10 07:02:52;;;;;;;20.23;12.73;;;15.50;99.90;;;;;;6271225;22;20008;-82
2021/08/10 07:05:19;;;;;;;15.15;12.15;;;15.60;99.90;;;;;;6221606;22;20095;-83
2021/08/10 07:07:45;;;;;;;17.73;12.30;;;15.70;99.90;;;;;;6220901;22;20138;-83
2021/08/10 07:10:11;;;;;;;25.75;13.68;;;15.70;99.90;;;;;;6245622;22;20019;-81
2021/08/10 07:12:37;;;;;;;13.57;10.80;;;15.80;99.90;;;;;;6221774;22;20007;-83
2021/08/10 07:15:03;;;;;;;15.43;10.02;;;15.80;99.90;;;;;;6222218;22;20016;-83
2021/08/10 07:17:29;;;;;;;15.75;9.20;;;15.80;99.90;;;;;;6197264;22;20479;-82
2021/08/10 07:19:55;;;;;;;14.20;9.25;;;15.80;99.90;;;;;;6271964;22;20012;-83
2021/08/10 07:22:21;;;;;;;13.93;9.60;;;15.80;99.90;;;;;;6245306;22;20099;-81
2021/08/10 07:24:47;;;;;;;18.42;9.80;;;15.80;99.90;;;;;;6219964;22;20034;-81
2021/08/10 07:27:13;;;;;;;12.57;9.82;;;15.80;99.90;;;;;;6194818;22;20070;-82
2021/08/10 07:29:39;;;;;;;15.07;9.80;;;15.80;99.90;;;;;;6192909;22;20456;-82
2021/08/10 07:32:05;;;;;;;14.73;9.23;;;15.80;99.90;;;;;;6218889;22;20461;-81
2021/08/10 07:34:31;;;;;;;14.05;9.38;;;15.90;99.90;;;;;;6221750;22;20012;-82
2021/08/10 07:36:56;;;;;;;12.48;9.70;;;15.90;99.90;;;;;;6194077;22;20339;-82
2021/08/10 07:39:22;;;;;;;14.75;10.63;;;15.90;99.90;;;;;;6218387;22;20028;-82
2021/08/10 07:41:48;;;;;;;16.98;11.02;;;15.90;99.90;;;;;;6219149;22;20035;-83
2021/08/10 07:44:14;;;;;;;17.02;11.93;;;16.00;99.90;;;;;;6244796;22;20019;-83
2021/08/10 07:46:40;;;;;;;15.57;11.82;;;16.00;99.90;;;;;;6219569;22;20023;-82
2021/08/10 07:49:06;;;;;;;15.15;12.30;;;16.00;99.90;;;;;;6218798;22;20019;-83
2021/08/10 07:51:32;;;;;;;15.70;11.27;;;16.10;99.90;;;;;;6223969;22;20000;-81
2021/08/10 07:53:58;;;;;;;16.83;11.98;;;16.10;99.90;;;;;;6245229;22;20420;-81
2021/08/10 07:56:23;;;;;;;19.13;13.40;;;16.10;99.90;;;;;;6232662;22;20035;-83
2021/08/10 07:58:49;;;;;;;19.13;13.88;;;16.10;99.90;;;;;;6164109;22;20012;-85
2021/08/10 08:01:15;;;;;;;26.83;15.32;;;16.20;99.90;;;;;;6189903;22;20011;-82
2021/08/10 08:03:41;;;;;;;23.38;16.85;;;16.20;99.90;;;;;;6242682;22;20386;-84
2021/08/10 08:06:07;;;;;;;26.02;19.05;;;16.30;99.90;;;;;;6215830;22;20011;-84
2021/08/10 08:08:33;;;;;;;27.85;17.90;;;16.40;99.90;;;;;;6215529;22;20011;-84
2021/08/10 08:10:59;;;;;;;31.33;18.60;;;16.50;99.90;;;;;;6214863;22;20039;-84
2021/08/10 08:13:26;;;;;;;26.73;19.23;;;16.60;99.90;;;;;;6267819;22;20011;-84
2021/08/10 08:15:55;;;;;;;30.23;21.30;;;16.80;99.90;;;;;;6216865;22;20025;-83
2021/08/10 08:18:21;;;;;;;40.30;21.20;;;16.90;99.90;;;;;;6246474;22;20569;-83
2021/08/10 08:20:48;;;;;;;33.85;21.40;;;16.90;99.90;;;;;;6219067;22;20020;-84
2021/08/10 08:23:19;;;;;;;36.92;20.83;;;17.00;99.90;;;;;;6250078;22;20016;-85
2021/08/10 08:25:45;;;;;;;30.92;21.83;;;17.00;99.90;;;;;;6215545;22;20103;-87
2021/08/10 08:28:12;;;;;;;29.25;21.33;;;17.10;99.90;;;;;;6217133;22;20015;-85
2021/08/10 08:30:39;;;;;;;35.28;20.98;;;17.10;99.90;;;;;;6191744;22;20085;-85
2021/08/10 08:33:09;;;;;;;33.58;20.17;;;17.20;99.90;;;;;;6264875;22;20055;-86
2021/08/10 08:35:37;;;;;;;30.65;21.17;;;17.20;99.90;;;;;;6265255;22;20157;-87
2021/08/10 08:38:04;;;;;;;34.80;20.02;;;17.10;99.90;;;;;;6238817;22;20015;-85
2021/08/10 08:40:30;;;;;;;30.20;21.42;;;17.20;99.90;;;;;;6189116;22;20100;-84
2021/08/10 08:42:56;;;;;;;27.02;20.65;;;17.20;99.90;;;;;;6242007;22;20357;-82
2021/08/10 08:45:22;;;;;;;33.42;20.60;;;17.30;99.90;;;;;;6243093;22;20011;-85
2021/08/10 08:47:53;;;;;;;28.30;20.65;;;17.30;99.90;;;;;;6213215;22;20555;-85
2021/08/10 08:50:20;;;;;;;32.70;20.17;;;17.30;99.90;;;;;;6242232;22;20026;-84
2021/08/10 08:52:51;;;;;;;24.38;17.65;;;17.30;99.90;;;;;;6235301;22;20011;-84
2021/08/10 08:55:19;;;;;;;32.63;19.35;;;17.20;99.90;;;;;;6244833;22;20012;-83
2021/08/10 08:57:45;;;;;;;34.63;19.92;;;17.20;99.90;;;;;;6236674;22;20020;-82
2021/08/10 09:00:12;;;;;;;27.40;19.23;;;17.20;99.90;;;;;;6212051;22;20218;-84
2021/08/10 09:02:38;;;;;;;30.52;19.27;;;17.30;99.90;;;;;;6183245;22;20034;-83
2021/08/10 09:05:05;;;;;;;29.27;19.77;;;17.30;99.90;;;;;;6205017;22;20046;-82
2021/08/10 09:07:31;;;;;;;31.80;18.73;;;17.40;99.90;;;;;;6209406;22;20436;-85
2021/08/10 09:10:12;;;;;;;25.33;17.48;;;17.50;99.90;;;;;;6210077;22;20055;-84
2021/08/10 09:12:45;;;;;;;29.05;16.55;;;17.60;99.90;;;;;;6236544;22;20019;-87
2021/08/10 09:15:28;;;;;;;22.85;14.73;;;17.70;99.90;;;;;;6209084;22;20034;-84
2021/08/10 09:17:54;;;;;;;14.82;10.77;;;17.90;99.90;;;;;;6236899;22;20050;-84
2021/08/10 09:20:22;;;;;;;19.38;10.90;;;18.00;99.90;;;;;;6206814;22;20396;-86
2021/08/10 09:22:55;;;;;;;18.48;10.30;;;18.10;99.90;;;;;;6235883;22;20074;-85
2021/08/10 09:25:22;;;;;;;18.45;10.95;;;18.20;99.90;;;;;;6238705;22;20095;-86
2021/08/10 09:27:48;;;;;;;14.55;10.35;;;18.20;99.90;;;;;;6216375;22;20015;-86
2021/08/10 09:30:24;;;;;;;24.65;12.43;;;18.20;99.90;;;;;;6213702;22;20016;-85
2021/08/10 09:32:57;;;;;;;25.92;13.88;;;18.20;99.90;;;;;;6212513;22;20012;-85
2021/08/10 09:35:28;;;;;;;28.65;18.23;;;17.90;99.90;;;;;;6188525;22;20460;-86
2021/08/10 09:38:09;;;;;;;34.55;21.33;;;17.60;99.90;;;;;;6247372;22;20027;-85
2021/08/10 09:40:41;;;;;;;30.60;20.42;;;17.30;99.90;;;;;;6267891;22;20016;-84
2021/08/10 09:43:33;;;;;;;31.63;21.13;;;17.20;99.90;;;;;;6236629;22;20012;-84
2021/08/10 09:46:19;;;;;;;38.67;23.95;;;17.00;99.90;;;;;;6211750;22;20019;-84
2021/08/10 09:48:56;;;;;;;46.88;25.70;;;16.90;99.90;;;;;;6235224;22;20015;-84
2021/08/10 09:51:24;;;;;;;42.20;26.85;;;16.80;99.90;;;;;;6236009;22;20008;-84
2021/08/10 09:54:03;;;;;;;39.13;25.45;;;16.70;99.90;;;;;;6237461;22;20036;-84
2021/08/10 09:57:00;;;;;;;38.05;20.58;;;16.70;99.90;;;;;;6249016;22;20057;-83
2021/08/10 09:59:38;;;;;;;61.38;21.85;;;16.70;99.90;;;;;;6238069;22;20095;-86
2021/08/10 10:02:22;;;;;;;41.63;22.00;;;16.60;99.90;;;;;;6215095;22;20016;-82
2021/08/10 10:04:57;;;;;;;39.05;19.65;;;16.40;99.90;;;;;;6264744;22;20018;-83
2021/08/10 10:07:24;;;;;;;35.08;16.60;;;16.20;99.90;;;;;;6239942;22;20251;-83
2021/08/10 10:09:50;;;;;;;27.70;14.82;;;16.20;99.90;;;;;;6217117;22;20016;-84
2021/08/10 10:12:19;;;;;;;21.40;11.50;;;16.10;99.90;;;;;;6247692;22;20022;-84
2021/08/10 10:14:46;;;;;;;28.98;12.68;;;16.00;99.90;;;;;;6232389;22;20026;-85
2021/08/10 10:17:13;;;;;;;20.25;10.68;;;15.90;99.90;;;;;;6222868;22;20039;-85
2021/08/10 10:19:42;;;;;;;20.85;12.55;;;15.80;99.90;;;;;;6247359;22;20015;-84
2021/08/10 10:22:15;;;;;;;33.03;14.35;;;15.80;99.90;;;;;;6241241;22;20072;-82
2021/08/10 10:25:02;;;;;;;42.47;17.15;;;15.70;99.90;;;;;;6243701;22;20012;-82
2021/08/10 10:27:29;;;;;;;33.40;15.43;;;15.70;99.90;;;;;;6250699;22;20020;-82
2021/08/10 10:29:55;;;;;;;32.50;14.98;;;15.70;99.90;;;;;;6212514;22;20091;-83
2021/08/10 10:32:22;;;;;;;64.68;20.25;;;15.70;99.90;;;;;;6238046;22;20016;-82
2021/08/10 10:34:48;;;;;;;40.22;15.90;;;15.70;99.90;;;;;;6239630;22;20015;-82
2021/08/10 10:37:21;;;;;;;20.65;13.32;;;15.70;99.90;;;;;;6246992;22;20019;-83
2021/08/10 10:39:51;;;;;;;45.13;17.08;;;15.60;99.90;;;;;;6238890;22;20433;-84
2021/08/10 10:42:17;;;;;;;36.70;15.43;;;15.60;99.90;;;;;;6260815;22;20307;-82
2021/08/10 10:44:50;;;;;;;36.53;15.63;;;15.60;99.90;;;;;;6206435;22;20015;-83
2021/08/10 10:47:24;;;;;;;23.33;13.68;;;15.60;99.90;;;;;;6244213;22;20439;-84
2021/08/10 10:49:56;;;;;;;46.08;20.80;;;15.50;99.90;;;;;;6238487;22;20011;-86
2021/08/10 10:52:59;;;;;;;75.20;24.92;;;15.50;99.90;;;;;;6233672;22;20023;-85
2021/08/10 10:55:51;;;;;;;31.73;16.92;;;15.50;99.90;;;;;;6244477;22;20034;-82
2021/08/10 10:58:33;;;;;;;119.63;30.30;;;15.50;99.90;;;;;;6206541;22;20019;-83
2021/08/10 11:01:14;;;;;;;44.70;20.77;;;15.40;99.90;;;;;;6244496;22;20044;-84
2021/08/10 11:03:44;;;;;;;59.25;24.42;;;15.40;99.90;;;;;;6215408;22;20015;-83
2021/08/10 11:06:41;;;;;;;36.95;20.85;;;15.50;99.90;;;;;;6212588;22;20024;-83
2021/08/10 11:09:07;;;;;;;28.83;16.88;;;15.50;99.90;;;;;;6241352;22;20431;-83
2021/08/10 11:11:52;;;;;;;67.72;24.52;;;15.50;99.90;;;;;;6231836;22;20455;-82
2021/08/10 11:14:38;;;;;;;94.47;28.63;;;15.50;99.90;;;;;;6207398;22;20431;-82
2021/08/10 11:17:10;;;;;;;60.40;24.00;;;15.50;99.90;;;;;;6215236;22;20507;-82
2021/08/10 11:19:38;;;;;;;44.67;19.02;;;15.50;99.90;;;;;;6261592;22;20038;-83
2021/08/10 11:22:16;;;;;;;70.80;24.42;;;15.60;99.90;;;;;;6237022;22;20039;-83
2021/08/10 11:24:47;;;;;;;27.27;16.13;;;15.60;99.90;;;;;;6232019;22;20091;-85
2021/08/10 11:27:30;;;;;;;37.88;19.55;;;15.60;99.90;;;;;;6205884;22;20468;-84
2021/08/10 11:29:58;;;;;;;122.30;28.15;;;15.60;99.90;;;;;;6205842;22;20547;-84
2021/08/10 11:32:45;;;;;;;83.95;24.75;;;15.60;99.90;;;;;;6207240;22;20048;-81
2021/08/10 11:35:34;;;;;;;44.38;21.10;;;15.60;99.90;;;;;;6267236;22;20015;-85
2021/08/10 11:38:08;;;;;;;36.40;19.58;;;15.60;99.90;;;;;;6236608;22;20012;-83
2021/08/10 11:40:53;;;;;;;38.53;20.83;;;15.60;99.90;;;;;;6237381;22;20012;-83
2021/08/10 11:43:21;;;;;;;33.30;20.25;;;15.50;99.90;;;;;;6233653;22;20019;-84
2021/08/10 11:45:48;;;;;;;28.30;16.65;;;15.50;99.90;;;;;;6211127;22;20360;-82
2021/08/10 11:48:14;;;;;;;59.90;21.27;;;15.50;99.90;;;;;;6208786;22;20018;-82
2021/08/10 11:50:41;;;;;;;46.65;21.52;;;15.50;99.90;;;;;;6236328;22;20022;-82
2021/08/10 11:53:07;;;;;;;32.00;18.58;;;15.50;99.90;;;;;;6184896;22;20023;-82
2021/08/10 11:55:36;;;;;;;20.60;11.98;;;15.60;99.90;;;;;;6236648;22;20098;-85
2021/08/10 11:58:04;;;;;;;20.98;12.02;;;15.60;99.90;;;;;;6263364;22;20466;-84
2021/08/10 12:00:32;;;;;;;28.20;15.90;;;15.70;99.90;;;;;;6237827;22;20012;-85
2021/08/10 12:02:59;;;;;;;30.70;20.20;;;15.70;99.90;;;;;;6263911;22;20015;-84
2021/08/10 12:05:25;;;;;;;55.28;26.17;;;15.80;99.90;;;;;;6193742;22;20063;-84
2021/08/10 12:08:00;;;;;;;70.70;29.08;;;15.90;99.90;;;;;;6216826;22;20016;-83
2021/08/10 12:10:30;;;;;;;52.47;22.77;;;15.90;99.90;;;;;;6247696;22;20022;-83
2021/08/10 12:13:02;;;;;;;62.20;29.92;;;16.00;99.90;;;;;;6244594;22;20011;-84
2021/08/10 12:15:44;;;;;;;62.38;32.20;;;16.10;99.90;;;;;;6246687;22;20380;-84
2021/08/10 12:18:11;;;;;;;113.45;41.53;;;16.20;99.90;;;;;;6260134;22;20046;-84
2021/08/10 12:20:38;;;;;;;117.70;43.50;;;16.30;99.90;;;;;;6194448;22;20011;-85
2021/08/10 12:23:09;;;;;;;93.32;42.22;;;16.50;99.90;;;;;;6238614;22;20037;-85
2021/08/10 12:25:36;;;;;;;85.18;42.03;;;16.60;99.90;;;;;;6235007;22;20015;-84
2021/08/10 12:28:09;;;;;;;95.88;48.13;;;16.80;99.90;;;;;;6213950;22;20015;-86
2021/08/10 12:30:37;;;;;;;103.20;48.90;;;17.00;99.90;;;;;;6266112;22;20016;-85
2021/08/10 12:33:15;;;;;;;92.90;48.25;;;17.20;99.90;;;;;;6201144;22;20079;-83
2021/08/10 12:36:02;;;;;;;86.22;45.85;;;17.40;99.90;;;;;;6255198;22;20674;-83
2021/08/10 12:38:29;;;;;;;59.90;33.65;;;17.50;99.90;;;;;;6240418;22;20288;-84